Flight Track Log - Related Links

Times and Time Zones

All times are in EDT time to prevent confusion due to time zone crossing. See the ASQ5102 flight status page for this flight to view local times or setup timezone preferences in your user account.

Time Position Orientation Groundspeed Altitude Reporting Facility
EDT Latitude Longitude Course Direction KTS MPH feet Rate Location/Type
Thu 02:09:54 PM 33.6333 -84.4667 253° West 165 190 2,200  Level Atlanta TRACON
Thu 02:10:54 PM 33.6167 -84.5333 253° West 232 267 3,700 1,878 Climbing Atlanta TRACON
Thu 02:11:49 PM 33.5833 -84.6000 239° Southwest 274 315 5,800 2,400 Climbing Atlanta TRACON
Thu 02:12:49 PM 33.5167 -84.6000 180° South 283 326 8,300 2,100 Climbing Atlanta TRACON
Thu 02:13:49 PM 33.4333 -84.6000 180° South 296 341 10,000 895 Climbing Atlanta TRACON
Thu 02:14:43 PM 33.3500 -84.6500 207° Southwest 320 368 10,000  Level Atlanta TRACON
Thu 02:15:43 PM 33.2833 -84.6833 203° Southwest 312 359 10,000  Level Atlanta TRACON
Thu 02:16:49 PM 33.1833 -84.7333 203° Southwest 312 359 10,000  Level Atlanta TRACON
Thu 02:17:49 PM 33.1000 -84.7667 199° South 319 367 10,000  Level Atlanta TRACON
Thu 02:18:49 PM 33.0333 -84.8167 212° Southwest 325 374 10,000  Level Atlanta TRACON
Thu 02:19:49 PM 32.9500 -84.8833 214° Southwest 333 383 10,000  Level Atlanta TRACON
Thu 02:20:49 PM 32.9167 -84.9667 245° Southwest 321 369 10,000  Level Atlanta TRACON
Thu 02:21:43 PM 32.8833 -85.0500 245° Southwest 302 348 10,000  Level Atlanta TRACON
Thu 02:22:49 PM 32.8333 -85.1500 239° Southwest 312 359 10,000  Level Atlanta TRACON
Thu 02:23:49 PM 32.8000 -85.2333 245° Southwest 322 371 10,000  Level Atlanta TRACON
Thu 02:24:43 PM 32.7500 -85.3333 239° Southwest 327 376 10,000  Level Atlanta TRACON
Thu 02:25:43 PM 32.7167 -85.4167 245° Southwest 323 372 10,000  Level Atlanta TRACON
Thu 02:26:43 PM 32.6833 -85.5167 248° West 328 377 10,000  Level Atlanta TRACON
Thu 02:27:37 PM 32.6333 -85.6167 239° Southwest 332 382 10,000  Level Atlanta TRACON
Thu 02:29:00 PM 32.5654 -85.7253 233° Southwest  Level FlightAware Approximate
Thu 02:36:00 PM 32.3093 -86.3368 257° West  Level FlightAware Approximate
Thu 02:37:00 PM 32.3000 -86.3833 257° West  Level FlightAware Approximate
Thu 02:38:00 PM 32.3006 -86.3940 257° West  Level Estimated
Thu 02:39:00 PM 32.3006 -86.3940 257° West  Level Estimated
Thu 02:40:00 PM 32.3006 -86.3940 257° West  Level Estimated
Thu 02:41:00 PM 32.3006 -86.3940 257° West  Level Estimated
Thu 02:42:00 PM 32.3006 -86.3940 257° West  Level Estimated
Thu 02:43:00 PM 32.3006 -86.3940 257° West  Level Estimated
Thu 02:44:00 PM 32.3006 -86.3940 257° West  Level Estimated
Thu 02:45:00 PM 32.3006 -86.3940 257° West  Level Estimated
Thu 02:46:00 PM 32.3006 -86.3940 257° West  Level Estimated

Login

Don't have an account? Register now (free) for customized features, flight alerts, and more!